Time;durP1;ratioP1;P1;durP2;ratioP2;P2;SDS_P1;SDS_P2;PMS_P1;PMS_P2;Temp;Humidity;BMP_temperature;BMP_pressure;BME280_temperature;BME280_humidity;BME280_pressure;Samples;Min_cycle;Max_cycle;Signal;HPM_P1;HPM_P2
2022/11/25 00:01:15;;;;;;;77.90;74.88;;;7.70;94.60;;;;;;5062134;28;20036;-76
2022/11/25 00:03:41;;;;;;;78.03;75.03;;;7.60;94.60;;;;;;5030120;28;20119;-76
2022/11/25 00:06:08;;;;;;;78.15;75.05;;;7.60;94.60;;;;;;5029892;28;20036;-76
2022/11/25 00:08:34;;;;;;;77.15;74.05;;;7.60;94.60;;;;;;5061687;28;20037;-76
2022/11/25 00:11:01;;;;;;;80.53;77.32;;;7.50;94.60;;;;;;5028705;28;20033;-76
2022/11/25 00:13:26;;;;;;;80.32;77.15;;;7.50;94.60;;;;;;5029696;28;20033;-76
2022/11/25 00:15:52;;;;;;;78.53;75.43;;;7.50;94.60;;;;;;5029653;28;20072;-76
2022/11/25 00:18:18;;;;;;;79.80;76.60;;;7.50;94.60;;;;;;5027492;28;20117;-75
2022/11/25 00:20:43;;;;;;;78.93;75.82;;;7.50;94.60;;;;;;5029902;28;20037;-79
2022/11/25 00:23:09;;;;;;;82.20;79.00;;;7.50;94.60;;;;;;5028792;28;20061;-78
2022/11/25 00:25:35;;;;;;;82.40;79.20;;;7.50;94.60;;;;;;5012062;28;20025;-78
2022/11/25 00:28:01;;;;;;;81.95;78.75;;;7.50;94.60;;;;;;5030050;28;20398;-78
2022/11/25 00:30:27;;;;;;;79.55;76.45;;;7.50;94.60;;;;;;5028448;28;20048;-79
2022/11/25 00:32:53;;;;;;;78.78;75.68;;;7.40;94.60;;;;;;5029685;28;20529;-78
2022/11/25 00:35:19;;;;;;;;;;;7.50;94.60;;;;;;5062217;28;20125;-79
2022/11/25 00:37:44;;;;;;;81.25;78.10;;;7.40;94.60;;;;;;5029869;28;19999;-78
2022/11/25 00:40:11;;;;;;;77.72;74.72;;;7.40;94.60;;;;;;5028468;28;20482;-79
2022/11/25 00:45:21;;;;;;;79.50;76.40;;;7.40;94.60;;;;;;5028825;28;20062;-79
2022/11/25 00:47:46;;;;;;;77.68;74.47;;;7.40;94.60;;;;;;5029555;28;20668;-79
2022/11/25 00:50:12;;;;;;;79.15;76.05;;;7.40;94.60;;;;;;5045093;28;20049;-79
2022/11/25 00:52:38;;;;;;;76.20;73.25;;;7.40;94.60;;;;;;5029898;28;20033;-79
2022/11/25 00:55:04;;;;;;;76.45;73.55;;;7.40;94.60;;;;;;5028063;28;20505;-79
2022/11/25 00:57:30;;;;;;;77.95;74.95;;;7.40;94.60;;;;;;5028045;28;20028;-80
2022/11/25 00:59:56;;;;;;;75.90;73.00;;;7.40;94.60;;;;;;5065392;28;20038;-80
2022/11/25 01:02:22;;;;;;;74.32;71.53;;;7.40;94.60;;;;;;5062343;28;20021;-79
2022/11/25 01:04:47;;;;;;;73.43;70.63;;;7.40;94.60;;;;;;5061529;28;20029;-79
2022/11/25 01:07:14;;;;;;;74.32;71.50;;;7.40;94.60;;;;;;5028140;28;20091;-79
2022/11/25 01:09:39;;;;;;;;;;;7.30;94.60;;;;;;5029653;28;20109;-79
2022/11/25 01:12:05;;;;;;;72.00;69.28;;;7.30;94.60;;;;;;5029088;28;20012;-79
2022/11/25 01:14:32;;;;;;;74.30;71.50;;;7.40;94.60;;;;;;5060906;28;20033;-79
2022/11/25 01:16:58;;;;;;;71.05;68.35;;;7.40;94.60;;;;;;5060643;28;20041;-79
2022/11/25 01:19:24;;;;;;;70.95;68.25;;;7.40;94.60;;;;;;5029147;28;20108;-80
2022/11/25 01:21:50;;;;;;;73.20;70.40;;;7.30;94.60;;;;;;5027773;28;20113;-79
2022/11/25 01:24:16;;;;;;;74.55;71.75;;;7.30;94.60;;;;;;5028928;28;20044;-79
2022/11/25 01:26:42;;;;;;;74.90;72.07;;;7.30;94.60;;;;;;5027762;28;20048;-80
2022/11/25 01:29:14;;;;;;;69.68;67.00;;;7.30;94.70;;;;;;5027450;28;20433;-79
2022/11/25 01:31:40;;;;;;;69.55;66.90;;;7.40;94.70;;;;;;5060731;28;20026;-76
2022/11/25 01:34:13;;;;;;;67.72;65.13;;;7.30;94.60;;;;;;5028320;28;20026;-76
2022/11/25 01:36:39;;;;;;;71.68;68.97;;;7.40;94.60;;;;;;5028437;28;20025;-76
2022/11/25 01:39:05;;;;;;;68.63;66.03;;;7.30;94.60;;;;;;5028223;28;20029;-76
2022/11/25 01:41:32;;;;;;;74.53;71.72;;;7.30;94.60;;;;;;5028511;28;20037;-76
2022/11/25 01:44:21;;;;;;;70.88;68.18;;;7.30;94.70;;;;;;5028192;28;20017;-79
2022/11/25 01:46:50;;;;;;;69.50;66.90;;;7.40;94.70;;;;;;5060382;28;20390;-79
2022/11/25 01:49:28;;;;;;;73.72;70.93;;;7.30;94.60;;;;;;5028318;28;20087;-79
2022/11/25 01:52:02;;;;;;;72.60;69.88;;;7.40;94.70;;;;;;5028526;28;20025;-79
2022/11/25 01:54:33;;;;;;;71.70;69.00;;;7.30;94.70;;;;;;5028487;28;20029;-80
2022/11/25 01:57:05;;;;;;;73.43;70.63;;;7.30;94.60;;;;;;5028350;28;20033;-79
2022/11/25 01:59:36;;;;;;;69.93;67.28;;;7.30;94.60;;;;;;5028539;28;20074;-79
2022/11/25 02:02:02;;;;;;;68.13;65.55;;;7.30;94.70;;;;;;5028260;28;20017;-80
2022/11/25 02:04:33;;;;;;;70.60;67.90;;;7.30;94.70;;;;;;5026989;28;20079;-79
2022/11/25 02:07:13;;;;;;;68.95;66.35;;;7.30;94.70;;;;;;5026896;28;20771;-79
2022/11/25 02:09:41;;;;;;;70.03;67.35;;;7.40;94.70;;;;;;5028108;28;20107;-79
2022/11/25 02:12:07;;;;;;;63.30;60.90;;;7.30;94.70;;;;;;5059991;28;20393;-79
2022/11/25 02:14:33;;;;;;;68.60;66.00;;;7.30;94.70;;;;;;5060078;28;20036;-80
2022/11/25 02:17:00;;;;;;;66.63;64.13;;;7.30;94.70;;;;;;5026868;28;20485;-78
2022/11/25 02:19:41;;;;;;;68.90;66.30;;;7.40;94.70;;;;;;5027945;28;20112;-77
2022/11/25 02:22:12;;;;;;;69.50;66.90;;;7.40;94.70;;;;;;5027888;28;20026;-77
2022/11/25 02:24:45;;;;;;;69.57;66.97;;;7.30;94.70;;;;;;5027800;28;20021;-77
2022/11/25 02:27:11;;;;;;;71.45;68.75;;;7.40;94.70;;;;;;5059557;28;20083;-77
2022/11/25 02:29:38;;;;;;;65.75;63.25;;;7.40;94.60;;;;;;5026445;28;20033;-77
2022/11/25 02:32:04;;;;;;;69.47;66.88;;;7.30;94.60;;;;;;5026627;28;20124;-77
2022/11/25 02:34:30;;;;;;;68.70;66.10;;;7.30;94.60;;;;;;5060057;28;20067;-77
2022/11/25 02:36:57;;;;;;;69.55;66.95;;;7.30;94.70;;;;;;5059794;28;20478;-78
2022/11/25 02:39:23;;;;;;;68.60;66.00;;;7.30;94.70;;;;;;5027880;28;20037;-78
2022/11/25 02:41:54;;;;;;;69.63;67.03;;;7.30;94.70;;;;;;5027670;28;20104;-77
2022/11/25 02:44:20;;;;;;;69.00;66.40;;;7.30;94.70;;;;;;5027686;28;20095;-77
2022/11/25 02:46:46;;;;;;;68.55;65.95;;;7.30;94.70;;;;;;5026550;28;20030;-78
2022/11/25 02:49:11;;;;;;;67.18;64.65;;;7.30;94.60;;;;;;5027916;28;20030;-77
2022/11/25 02:51:42;;;;;;;68.38;65.78;;;7.30;94.70;;;;;;5026513;28;20037;-77
2022/11/25 02:54:09;;;;;;;66.78;64.28;;;7.30;94.70;;;;;;5026256;28;20031;-77
2022/11/25 02:56:35;;;;;;;68.28;65.68;;;7.30;94.70;;;;;;5027590;28;20053;-78
2022/11/25 02:59:02;;;;;;;67.88;65.30;;;7.30;94.70;;;;;;5027517;28;20441;-78
2022/11/25 03:01:30;;;;;;;64.75;62.33;;;7.30;94.70;;;;;;5059621;28;20057;-77
2022/11/25 03:03:55;;;;;;;64.22;61.83;;;7.30;94.70;;;;;;5027376;28;20089;-77
2022/11/25 03:06:21;;;;;;;67.43;64.90;;;7.30;94.70;;;;;;5026552;28;20133;-77
2022/11/25 03:08:47;;;;;;;60.95;58.65;;;7.30;94.70;;;;;;5009976;28;20037;-77
2022/11/25 03:11:13;;;;;;;64.20;61.80;;;7.30;94.70;;;;;;5026065;28;20047;-78
2022/11/25 03:13:39;;;;;;;61.85;59.55;;;7.30;94.70;;;;;;5027216;28;20080;-77
2022/11/25 03:16:05;;;;;;;62.45;60.05;;;7.30;94.70;;;;;;5027132;28;20132;-77
2022/11/25 03:18:30;;;;;;;64.93;62.53;;;7.30;94.70;;;;;;5027210;28;20084;-77
2022/11/25 03:20:56;;;;;;;63.30;60.90;;;7.40;94.80;;;;;;5026051;28;20459;-78
2022/11/25 03:23:22;;;;;;;62.95;60.55;;;7.30;94.70;;;;;;5027171;28;20477;-77
2022/11/25 03:25:48;;;;;;;68.45;65.85;;;7.30;94.70;;;;;;5009615;28;20064;-77
2022/11/25 03:28:13;;;;;;;66.47;63.97;;;7.30;94.70;;;;;;5026068;28;20037;-77
2022/11/25 03:30:39;;;;;;;68.38;65.78;;;7.30;94.70;;;;;;5027205;28;20059;-77
2022/11/25 03:33:05;;;;;;;65.68;63.17;;;7.30;94.70;;;;;;5027407;28;20029;-77
2022/11/25 03:35:31;;;;;;;68.72;66.13;;;7.30;94.70;;;;;;5059118;28;20052;-76
2022/11/25 03:37:56;;;;;;;67.97;65.43;;;7.30;94.70;;;;;;5027661;28;20029;-77
2022/11/25 03:40:22;;;;;;;67.05;64.55;;;7.30;94.70;;;;;;5027154;28;20034;-77
2022/11/25 03:42:48;;;;;;;66.78;64.28;;;7.20;94.70;;;;;;5059144;28;20044;-77
2022/11/25 03:45:14;;;;;;;67.88;65.32;;;7.20;94.70;;;;;;5026928;28;20041;-77
2022/11/25 03:47:41;;;;;;;63.38;60.97;;;7.20;94.70;;;;;;5027060;28;20037;-77
2022/11/25 03:50:09;;;;;;;66.75;64.25;;;7.20;94.70;;;;;;5025612;28;20029;-79
2022/11/25 03:52:35;;;;;;;65.60;63.10;;;7.20;94.70;;;;;;5027851;28;20099;-78
2022/11/25 03:55:01;;;;;;;66.22;63.72;;;7.20;94.70;;;;;;5061969;28;20339;-78
2022/11/25 03:57:27;;;;;;;68.95;66.35;;;7.20;94.70;;;;;;5030317;28;20040;-79
2022/11/25 03:59:52;;;;;;;66.60;64.10;;;7.20;94.80;;;;;;5030352;28;20104;-79
2022/11/25 04:02:18;;;;;;;66.00;63.50;;;7.20;94.70;;;;;;5029180;28;20114;-77
2022/11/25 04:04:44;;;;;;;69.22;66.63;;;7.20;94.70;;;;;;5029113;28;20342;-76
2022/11/25 04:07:09;;;;;;;64.28;61.88;;;7.20;94.70;;;;;;5028992;28;20149;-76
2022/11/25 04:09:35;;;;;;;63.45;61.05;;;7.20;94.80;;;;;;5030310;28;20041;-77
2022/11/25 04:14:45;;;;;;;64.05;61.65;;;7.30;94.80;;;;;;5030290;28;20114;-77
2022/11/25 04:17:11;;;;;;;64.30;61.90;;;7.20;94.80;;;;;;5045015;28;20089;-77
2022/11/25 04:19:36;;;;;;;63.80;61.40;;;7.30;94.80;;;;;;5028608;28;20386;-76
2022/11/25 04:22:02;;;;;;;60.90;58.60;;;7.20;94.80;;;;;;5028744;28;20040;-77
2022/11/25 04:24:28;;;;;;;64.07;61.67;;;7.20;94.80;;;;;;5029682;28;20033;-77
2022/11/25 04:26:54;;;;;;;62.92;60.53;;;7.30;94.80;;;;;;5029828;28;20043;-77
2022/11/25 04:29:20;;;;;;;63.25;60.85;;;7.30;94.80;;;;;;5029733;28;20121;-76
2022/11/25 04:31:46;;;;;;;64.63;62.22;;;7.30;94.80;;;;;;5029752;28;20034;-77
2022/11/25 04:34:11;;;;;;;62.22;59.92;;;7.30;94.80;;;;;;5044892;28;20033;-78
2022/11/25 04:36:37;;;;;;;61.28;58.97;;;7.30;95.00;;;;;;5028710;28;20033;-79
2022/11/25 04:39:03;;;;;;;60.35;58.05;;;7.20;94.70;;;;;;5061900;28;20037;-78
2022/11/25 04:41:29;;;;;;;58.72;56.53;;;7.30;94.80;;;;;;5029939;28;20022;-79
2022/11/25 04:43:58;;;;;;;58.85;56.65;;;7.20;94.80;;;;;;5029586;28;20180;-79
2022/11/25 04:46:29;;;;;;;62.72;60.40;;;7.20;94.80;;;;;;5029667;28;20021;-79
2022/11/25 04:48:55;;;;;;;59.35;57.15;;;7.20;94.70;;;;;;5029762;28;20064;-78
2022/11/25 04:51:20;;;;;;;58.47;56.28;;;7.20;94.80;;;;;;5028305;28;20494;-79
2022/11/25 04:53:46;;;;;;;57.83;55.63;;;7.20;94.80;;;;;;5044818;28;20038;-78
2022/11/25 04:56:17;;;;;;;58.20;56.00;;;7.20;94.80;;;;;;5029517;28;20037;-79
2022/11/25 05:01:28;;;;;;;56.33;54.22;;;7.20;94.80;;;;;;5028313;28;20116;-78
2022/11/25 05:03:54;;;;;;;56.95;54.85;;;7.10;94.80;;;;;;5028780;28;20092;-79
2022/11/25 05:06:19;;;;;;;53.00;51.00;;;7.10;94.80;;;;;;5029055;28;20087;-78
2022/11/25 05:08:48;;;;;;;55.53;53.42;;;7.10;94.80;;;;;;5044420;28;20030;-77
2022/11/25 05:11:14;;;;;;;51.95;50.05;;;7.10;94.80;;;;;;5029299;28;20033;-78
2022/11/25 05:13:40;;;;;;;53.55;51.55;;;7.10;94.80;;;;;;5029151;28;20029;-78
2022/11/25 05:16:06;;;;;;;52.60;50.60;;;7.10;94.80;;;;;;5028901;28;20120;-78
2022/11/25 05:18:32;;;;;;;;;;;7.10;94.70;;;;;;5029439;28;20049;-76
2022/11/25 05:21:02;;;;;;;50.60;48.70;;;7.10;94.80;;;;;;5060968;28;19995;-80
2022/11/25 05:23:28;;;;;;;50.97;49.08;;;7.10;94.80;;;;;;5027482;28;20116;-80
2022/11/25 05:25:59;;;;;;;51.63;49.72;;;7.00;94.70;;;;;;5028925;28;20112;-80
2022/11/25 05:28:25;;;;;;;51.17;49.28;;;7.00;94.70;;;;;;5028875;28;20057;-80
2022/11/25 05:30:51;;;;;;;;;;;7.00;94.70;;;;;;5027986;28;20037;-80
2022/11/25 05:33:17;;;;;;;48.80;47.00;;;7.00;94.70;;;;;;5028693;28;20450;-80
2022/11/25 05:35:42;;;;;;;49.90;48.05;;;7.00;94.70;;;;;;5027549;28;20064;-78
2022/11/25 05:38:08;;;;;;;51.92;50.03;;;7.00;94.70;;;;;;5028501;28;20037;-78
2022/11/25 05:40:34;;;;;;;53.22;51.22;;;7.10;94.80;;;;;;5028996;28;20029;-79
2022/11/25 05:43:00;;;;;;;;;;;7.00;94.80;;;;;;5028804;28;20496;-79
2022/11/25 05:45:26;;;;;;;55.45;53.35;;;7.10;94.80;;;;;;5060357;28;19909;-79
2022/11/25 05:47:52;;;;;;;51.72;49.83;;;7.10;94.80;;;;;;5027429;28;20390;-78
2022/11/25 05:50:17;;;;;;;50.58;48.67;;;7.00;94.80;;;;;;5027152;28;20043;-79
2022/11/25 05:52:43;;;;;;;49.10;47.30;;;7.10;94.80;;;;;;5026905;28;20034;-75
2022/11/25 05:55:09;;;;;;;51.08;49.17;;;7.10;94.80;;;;;;5026953;28;20030;-75
2022/11/25 05:57:35;;;;;;;46.85;45.15;;;7.10;94.80;;;;;;5026932;28;20049;-75
2022/11/25 06:00:00;;;;;;;48.50;46.70;;;7.10;94.80;;;;;;5059836;28;20037;-75
2022/11/25 06:02:26;;;;;;;53.17;51.17;;;7.10;94.80;;;;;;5060214;28;20029;-75
2022/11/25 06:04:52;;;;;;;48.75;46.95;;;7.10;94.80;;;;;;5026673;28;20083;-75
2022/11/25 06:07:17;;;;;;;48.67;46.88;;;7.10;94.80;;;;;;5059803;28;20064;-75
2022/11/25 06:09:43;;;;;;;50.95;49.05;;;7.10;94.80;;;;;;5028067;28;20041;-75
2022/11/25 06:12:09;;;;;;;50.35;48.45;;;7.10;94.80;;;;;;5059900;28;20033;-75
2022/11/25 06:14:34;;;;;;;50.90;49.00;;;7.10;94.80;;;;;;5026150;28;20037;-75
2022/11/25 06:17:00;;;;;;;49.13;47.33;;;7.10;94.80;;;;;;5042716;28;20132;-75
2022/11/25 06:19:26;;;;;;;49.38;47.58;;;7.10;94.80;;;;;;5026379;28;20451;-75
2022/11/25 06:21:51;;;;;;;49.72;47.85;;;7.10;94.80;;;;;;5043285;28;20025;-75
2022/11/25 06:24:17;;;;;;;49.60;47.72;;;7.10;94.80;;;;;;5043029;28;20025;-75
2022/11/25 06:26:43;;;;;;;50.83;48.92;;;7.10;94.80;;;;;;5026529;28;20394;-75
2022/11/25 06:29:08;;;;;;;48.80;47.00;;;7.10;94.80;;;;;;5027722;28;20381;-75
2022/11/25 06:31:34;;;;;;;51.80;49.90;;;7.10;94.80;;;;;;5026256;28;20025;-75
2022/11/25 06:34:00;;;;;;;51.40;49.50;;;7.10;94.80;;;;;;5042617;28;20029;-75
2022/11/25 06:36:26;;;;;;;52.50;50.50;;;7.10;94.80;;;;;;5027649;28;20030;-75
2022/11/25 06:38:53;;;;;;;51.78;49.88;;;7.10;94.80;;;;;;5026131;28;20120;-75
2022/11/25 06:41:20;;;;;;;52.92;50.92;;;7.10;94.80;;;;;;5059469;28;20037;-75
2022/11/25 06:43:46;;;;;;;52.75;50.75;;;7.10;94.80;;;;;;5027269;28;20039;-75
2022/11/25 06:46:14;;;;;;;52.72;50.72;;;7.00;94.80;;;;;;5009573;28;20548;-75
2022/11/25 06:48:40;;;;;;;51.60;49.70;;;7.10;94.80;;;;;;5026014;28;20393;-75
2022/11/25 06:51:09;;;;;;;54.53;52.50;;;7.00;94.70;;;;;;5059498;28;20025;-75
2022/11/25 06:53:36;;;;;;;55.55;53.45;;;7.10;94.80;;;;;;5027299;28;20033;-75
2022/11/25 06:56:20;;;;;;;54.08;52.08;;;7.00;94.70;;;;;;5026165;28;20057;-73
2022/11/25 06:58:47;;;;;;;56.00;53.90;;;7.00;94.70;;;;;;5027016;28;20025;-73
2022/11/25 07:01:16;;;;;;;52.45;50.45;;;7.00;94.70;;;;;;5025881;28;20114;-74
2022/11/25 07:03:43;;;;;;;54.20;52.20;;;7.00;94.70;;;;;;5027110;28;20053;-73
2022/11/25 07:06:11;;;;;;;53.72;51.72;;;7.00;94.70;;;;;;5059906;28;20464;-73
2022/11/25 07:08:37;;;;;;;57.25;55.10;;;7.00;94.80;;;;;;5026229;28;20110;-74
2022/11/25 07:11:11;;;;;;;56.30;54.20;;;7.00;94.70;;;;;;5058946;28;20045;-74
2022/11/25 07:13:37;;;;;;;56.63;54.53;;;7.00;94.80;;;;;;5029344;28;20033;-72
2022/11/25 07:16:04;;;;;;;60.70;58.40;;;7.00;94.70;;;;;;5042435;28;20068;-74
2022/11/25 07:18:36;;;;;;;57.33;55.13;;;7.00;94.70;;;;;;5027249;28;20435;-74
2022/11/25 07:21:03;;;;;;;59.47;57.22;;;7.00;94.70;;;;;;5059167;28;20028;-74
2022/11/25 07:23:29;;;;;;;55.65;53.55;;;7.00;94.70;;;;;;5027001;28;20092;-74
2022/11/25 07:25:54;;;;;;;59.40;57.17;;;7.00;94.70;;;;;;5025771;28;20072;-74
2022/11/25 07:28:20;;;;;;;57.30;55.10;;;7.00;94.80;;;;;;5029676;28;20085;-74
2022/11/25 07:30:46;;;;;;;55.85;53.75;;;7.00;94.70;;;;;;5029763;28;20389;-74
2022/11/25 07:33:11;;;;;;;55.15;53.05;;;7.00;94.80;;;;;;5029547;28;20037;-73
2022/11/25 07:35:37;;;;;;;56.95;54.75;;;7.00;94.70;;;;;;5029403;28;20398;-74
2022/11/25 07:38:03;;;;;;;58.38;56.17;;;7.00;94.80;;;;;;5029132;28;20029;-74
2022/11/25 07:40:28;;;;;;;58.85;56.65;;;7.00;94.70;;;;;;5012938;28;20378;-74
2022/11/25 07:42:54;;;;;;;55.20;53.10;;;7.00;94.70;;;;;;5045862;28;20046;-74
2022/11/25 07:45:20;;;;;;;56.42;54.30;;;7.00;94.70;;;;;;5045869;28;20029;-73
2022/11/25 07:47:46;;;;;;;55.58;53.47;;;7.00;94.70;;;;;;5030114;28;20033;-74
2022/11/25 07:50:12;;;;;;;55.38;53.28;;;7.00;94.70;;;;;;5062223;28;20036;-74
2022/11/25 07:52:39;;;;;;;55.00;52.90;;;7.00;94.80;;;;;;5030247;28;20041;-74
2022/11/25 07:55:05;;;;;;;53.78;51.78;;;7.10;94.80;;;;;;5029029;28;20382;-74
2022/11/25 07:57:31;;;;;;;;;;;7.10;94.80;;;;;;5045612;28;20044;-74
2022/11/25 07:59:56;;;;;;;54.30;52.20;;;7.10;94.80;;;;;;5030025;28;20325;-74
2022/11/25 08:02:22;;;;;;;54.95;52.85;;;7.10;94.80;;;;;;5028946;28;20026;-74
2022/11/25 08:04:48;;;;;;;57.35;55.15;;;7.10;94.80;;;;;;5061641;28;20030;-75
2022/11/25 08:07:13;;;;;;;55.28;53.17;;;7.10;94.80;;;;;;5045114;28;20349;-74
2022/11/25 08:09:39;;;;;;;55.40;53.30;;;7.10;94.80;;;;;;5028897;28;20037;-73
2022/11/25 08:12:05;;;;;;;50.95;49.05;;;7.10;94.80;;;;;;5045229;28;20033;-74
2022/11/25 08:14:31;;;;;;;55.50;53.40;;;7.10;94.80;;;;;;5029734;28;20045;-74
2022/11/25 08:16:56;;;;;;;54.30;52.22;;;7.10;94.80;;;;;;5044862;28;20052;-74
2022/11/25 08:19:22;;;;;;;54.95;52.85;;;7.10;94.80;;;;;;5061509;28;20524;-73
2022/11/25 08:21:48;;;;;;;54.00;52.00;;;7.10;94.80;;;;;;5029680;28;20022;-72
2022/11/25 08:24:19;;;;;;;52.60;50.60;;;7.20;94.90;;;;;;5027854;28;20038;-74
2022/11/25 08:26:45;;;;;;;53.38;51.38;;;7.20;94.90;;;;;;5061215;28;20025;-74
2022/11/25 08:29:16;;;;;;;52.22;50.22;;;7.20;94.80;;;;;;5061377;28;20062;-74
2022/11/25 08:31:42;;;;;;;51.53;49.58;;;7.30;94.90;;;;;;5061257;28;20033;-74
2022/11/25 08:34:15;;;;;;;52.58;50.58;;;7.30;94.80;;;;;;5029186;28;20390;-74
2022/11/25 08:36:40;;;;;;;51.28;49.33;;;7.30;94.90;;;;;;5061483;28;20072;-75
2022/11/25 08:39:07;;;;;;;51.70;49.75;;;7.40;94.90;;;;;;5028268;28;20446;-74
2022/11/25 08:41:36;;;;;;;50.10;48.20;;;7.40;94.90;;;;;;5060988;28;20029;-74
2022/11/25 08:44:03;;;;;;;51.33;49.35;;;7.40;94.80;;;;;;5060936;28;20474;-74
2022/11/25 08:46:32;;;;;;;50.95;49.05;;;7.50;94.90;;;;;;5029389;28;20022;-75
2022/11/25 08:48:59;;;;;;;50.10;48.20;;;7.50;94.90;;;;;;5030376;28;20030;-75
2022/11/25 08:51:29;;;;;;;49.00;46.97;;;7.50;94.90;;;;;;5061487;28;20064;-75
2022/11/25 08:53:55;;;;;;;42.53;40.92;;;7.60;94.90;;;;;;5028618;28;20060;-75
2022/11/25 08:56:21;;;;;;;;;;;7.70;95.10;;;;;;5061218;28;20075;-75
2022/11/25 08:58:50;;;;;;;29.55;28.45;;;8.00;95.50;;;;;;5060625;28;19921;-74
2022/11/25 09:01:16;;;;;;;28.10;27.00;;;8.30;95.70;;;;;;5028560;28;20029;-75
2022/11/25 09:03:46;;;;;;;26.10;25.10;;;8.80;95.70;;;;;;5023012;28;20029;-75
2022/11/25 09:06:12;;;;;;;28.88;27.77;;;9.20;95.60;;;;;;5025533;28;20532;-76
2022/11/25 09:08:39;;;;;;;;;;;9.50;95.40;;;;;;5021895;28;20017;-75
2022/11/25 09:11:05;;;;;;;29.13;28.03;;;9.80;95.30;;;;;;5018740;28;20301;-75
2022/11/25 09:13:31;;;;;;;31.88;30.67;;;9.90;94.90;;;;;;5020413;28;20474;-76
2022/11/25 09:15:59;;;;;;;34.55;33.25;;;9.80;94.70;;;;;;5017450;28;20060;-75
2022/11/25 09:18:28;;;;;;;36.38;35.00;;;9.70;94.60;;;;;;5003070;28;20033;-75
2022/11/25 09:20:55;;;;;;;37.30;35.90;;;9.50;94.50;;;;;;5017976;28;20018;-76
2022/11/25 09:23:22;;;;;;;32.08;30.88;;;9.40;94.70;;;;;;5019433;28;20496;-77
2022/11/25 09:25:52;;;;;;;31.15;29.95;;;9.40;95.00;;;;;;5017777;28;20063;-76
2022/11/25 09:28:19;;;;;;;27.95;26.85;;;9.50;95.30;;;;;;5017767;28;20033;-77
2022/11/25 09:30:45;;;;;;;30.92;29.73;;;9.80;95.40;;;;;;5017099;28;20024;-75
2022/11/25 09:33:11;;;;;;;29.92;28.73;;;9.90;95.20;;;;;;5019271;28;20025;-76
2022/11/25 09:35:37;;;;;;;27.73;26.63;;;10.00;95.20;;;;;;5017130;28;20040;-77
2022/11/25 09:38:02;;;;;;;21.60;20.70;;;10.40;95.50;;;;;;5028176;28;20029;-76
2022/11/25 09:40:46;;;;;;;19.25;18.45;;;10.80;95.70;;;;;;5028060;28;20029;-76
2022/11/25 09:49:21;;;;;;;13.52;12.93;;;12.20;95.60;;;;;;5028675;28;20124;-76
2022/11/25 09:52:12;;;;;;;12.82;12.23;;;12.50;95.50;;;;;;5029089;28;20131;-76
2022/11/25 09:54:47;;;;;;;10.85;10.35;;;12.90;95.50;;;;;;5025251;28;20401;-76
2022/11/25 09:57:41;;;;;;;10.23;9.73;;;13.20;95.40;;;;;;5029454;28;20112;-77
2022/11/25 10:00:15;;;;;;;10.48;9.98;;;13.50;95.40;;;;;;5029253;28;20028;-76
2022/11/25 10:02:50;;;;;;;8.45;8.05;;;13.70;95.30;;;;;;5028392;28;20438;-76
2022/11/25 10:05:22;;;;;;;8.25;7.85;;;13.90;95.40;;;;;;5025226;28;20028;-76
2022/11/25 10:07:57;;;;;;;8.73;8.32;;;14.00;95.40;;;;;;5026718;28;20026;-76
2022/11/25 10:10:38;;;;;;;5.25;4.95;;;14.30;95.40;;;;;;5026328;28;20242;-75
2022/11/25 10:13:10;;;;;;;4.35;4.05;;;14.50;95.50;;;;;;5028920;28;20512;-76
2022/11/25 10:15:42;;;;;;;3.80;3.50;;;14.70;95.40;;;;;;5029422;28;20112;-74
2022/11/25 10:18:28;;;;;;;3.78;3.47;;;14.80;95.30;;;;;;5027678;28;20050;-76
2022/11/25 10:20:54;;;;;;;2.80;2.60;;;14.90;95.30;;;;;;5024669;28;20390;-74
2022/11/25 10:23:20;;;;;;;2.90;2.70;;;14.90;95.20;;;;;;5028142;28;20433;-75
2022/11/25 10:25:50;;;;;;;2.00;1.90;;;15.00;95.40;;;;;;5028141;28;20113;-75
2022/11/25 10:28:28;;;;;;;1.60;1.50;;;15.10;95.40;;;;;;5020678;28;20048;-74
2022/11/25 10:31:10;;;;;;;1.65;1.55;;;15.20;95.40;;;;;;5026839;28;20428;-75
2022/11/25 10:33:51;;;;;;;0.90;0.90;;;15.30;95.40;;;;;;5026286;28;20018;-76
2022/11/25 10:36:33;;;;;;;0.77;0.77;;;15.40;95.50;;;;;;5022842;28;20025;-75
2022/11/25 10:39:25;;;;;;;0.52;0.52;;;15.70;95.60;;;;;;5028935;28;20104;-75
2022/11/25 10:41:56;;;;;;;0.50;0.50;;;15.80;95.60;;;;;;5026402;28;20064;-75
2022/11/25 10:44:37;;;;;;;0.22;0.22;;;16.00;95.70;;;;;;5027754;28;20026;-75
2022/11/25 10:47:29;;;;;;;0.20;0.20;;;16.20;95.60;;;;;;5029158;28;20505;-76
2022/11/25 10:50:23;;;;;;;0.30;0.30;;;16.40;95.50;;;;;;5008960;28;20474;-75
2022/11/25 10:53:07;;;;;;;0.20;0.20;;;16.40;95.50;;;;;;5028917;28;20037;-75
2022/11/25 10:55:33;;;;;;;0.20;0.20;;;16.50;95.70;;;;;;5015584;28;20052;-75
2022/11/25 10:58:26;;;;;;;0.20;0.20;;;16.60;95.50;;;;;;5027143;28;20076;-76
2022/11/25 11:01:06;;;;;;;0.10;0.10;;;16.70;95.50;;;;;;5021746;28;20056;-73
2022/11/25 11:03:32;;;;;;;0.10;0.10;;;16.70;95.50;;;;;;5032535;28;20025;-76
2022/11/25 11:05:58;;;;;;;0.10;0.10;;;16.80;95.60;;;;;;5032432;28;20098;-75
2022/11/25 11:08:38;;;;;;;0.10;0.10;;;16.90;95.60;;;;;;5032694;28;20041;-74
2022/11/25 11:11:08;;;;;;;0.10;0.10;;;16.90;95.50;;;;;;5032575;28;20025;-75
2022/11/25 11:13:34;;;;;;;0.70;0.10;;;16.90;95.50;;;;;;5032450;28;20029;-77
2022/11/25 11:15:59;;;;;;;0.10;0.10;;;16.90;95.50;;;;;;5014630;28;20037;-77
2022/11/25 11:18:36;;;;;;;0.10;0.10;;;16.90;95.40;;;;;;5032938;28;20458;-76
2022/11/25 11:21:03;;;;;;;;;;;16.80;95.50;;;;;;5032950;28;20032;-78
2022/11/25 11:23:29;;;;;;;0.10;0.10;;;16.80;95.70;;;;;;5031032;28;20285;-74
2022/11/25 11:26:01;;;;;;;0.10;0.10;;;17.00;95.80;;;;;;5032429;28;20030;-77
2022/11/25 11:28:35;;;;;;;0.10;0.10;;;17.10;95.70;;;;;;5030425;28;20545;-76
2022/11/25 11:31:19;;;;;;;0.10;0.10;;;17.10;95.60;;;;;;5031948;28;20030;-74
2022/11/25 11:34:17;;;;;;;0.10;0.10;;;17.10;95.60;;;;;;5030543;28;20409;-73
2022/11/25 11:36:58;;;;;;;0.10;0.10;;;17.10;95.60;;;;;;5012504;28;20037;-77
2022/11/25 11:40:15;;;;;;;0.10;0.10;;;17.00;95.60;;;;;;5030676;28;20445;-74
2022/11/25 11:43:19;;;;;;;0.10;0.10;;;16.80;95.50;;;;;;5010336;28;20035;-75
2022/11/25 11:46:14;;;;;;;0.10;0.10;;;16.80;95.60;;;;;;5010210;28;20444;-75
2022/11/25 11:48:48;;;;;;;0.10;0.10;;;16.80;95.80;;;;;;5032015;28;20524;-74
2022/11/25 11:51:26;;;;;;;0.00;0.00;;;17.00;95.90;;;;;;5029968;28;20450;-76
2022/11/25 11:54:05;;;;;;;0.13;0.13;;;17.00;95.70;;;;;;5031667;28;20017;-76
2022/11/25 11:56:38;;;;;;;0.10;0.10;;;17.00;95.80;;;;;;5023825;28;20053;-78
2022/11/25 11:59:29;;;;;;;0.00;0.00;;;17.00;96.00;;;;;;5019420;28;20088;-77
2022/11/25 12:02:04;;;;;;;0.10;0.10;;;16.90;95.60;;;;;;5031577;28;20029;-76
2022/11/25 12:04:51;;;;;;;0.03;0.03;;;16.80;95.60;;;;;;5028860;28;20025;-77
2022/11/25 12:07:38;;;;;;;0.10;0.10;;;16.70;95.60;;;;;;5030343;28;20034;-77
2022/11/25 12:10:20;;;;;;;0.10;0.10;;;16.50;95.50;;;;;;5030195;28;20096;-77
2022/11/25 12:13:15;;;;;;;0.00;0.00;;;16.40;95.70;;;;;;5028730;28;20470;-76
2022/11/25 12:16:07;;;;;;;0.10;0.10;;;16.20;95.20;;;;;;5031424;28;20124;-77
2022/11/25 12:19:12;;;;;;;0.10;0.10;;;15.70;95.00;;;;;;5031410;28;20039;-75
2022/11/25 12:21:50;;;;;;;0.20;0.20;;;15.40;95.30;;;;;;5029898;28;20053;-77
2022/11/25 12:24:39;;;;;;;0.10;0.10;;;15.60;95.90;;;;;;5029883;28;20033;-76
2022/11/25 12:27:14;;;;;;;0.10;0.10;;;15.80;95.50;;;;;;5029824;28;20021;-79
2022/11/25 12:30:00;;;;;;;0.20;0.20;;;15.40;94.80;;;;;;5030514;28;20025;-77
2022/11/25 12:32:37;;;;;;;0.20;0.20;;;15.00;94.70;;;;;;5030498;28;20025;-75
2022/11/25 12:35:17;;;;;;;0.20;0.20;;;14.60;94.80;;;;;;5031229;28;20483;-76
2022/11/25 12:37:49;;;;;;;0.30;0.30;;;14.30;95.00;;;;;;5031019;28;20029;-76
2022/11/25 12:40:53;;;;;;;0.28;0.28;;;14.20;95.10;;;;;;5028691;28;20105;-76
2022/11/25 12:43:28;;;;;;;0.22;0.22;;;14.10;95.30;;;;;;5029907;28;20377;-75
2022/11/25 12:46:04;;;;;;;0.30;0.30;;;14.10;95.20;;;;;;5030925;28;20139;-78
2022/11/25 12:48:30;;;;;;;0.30;0.30;;;14.00;95.10;;;;;;5030752;28;20054;-76
2022/11/25 12:51:09;;;;;;;;;;;13.90;95.10;;;;;;5031818;28;20382;-76
2022/11/25 12:53:44;;;;;;;0.30;0.30;;;13.80;95.10;;;;;;5030736;28;19909;-76
2022/11/25 12:56:23;;;;;;;0.30;0.30;;;13.70;95.00;;;;;;5029883;28;20087;-76
2022/11/25 12:59:31;;;;;;;0.38;0.38;;;13.60;95.10;;;;;;5031201;28;20049;-79
2022/11/25 13:02:19;;;;;;;0.40;0.40;;;13.60;95.30;;;;;;5029349;28;20403;-77
2022/11/25 13:05:26;;;;;;;0.20;0.20;;;13.80;95.40;;;;;;5029856;28;20139;-79
2022/11/25 13:08:13;;;;;;;0.20;0.20;;;13.90;95.40;;;;;;5028881;28;20025;-77
2022/11/25 13:10:51;;;;;;;0.30;0.30;;;13.90;95.10;;;;;;5030669;28;20045;-78
2022/11/25 13:13:41;;;;;;;0.30;0.30;;;13.90;95.00;;;;;;5029161;28;20032;-76